Time;durP1;ratioP1;P1;durP2;ratioP2;P2;SDS_P1;SDS_P2;PMS_P1;PMS_P2;Temp;Humidity;BMP_temperature;BMP_pressure;BME280_temperature;BME280_humidity;BME280_pressure;Samples;Min_cycle;Max_cycle;Signal;HPM_P1;HPM_P2
2024/03/07 00:02:17;;;;;;;16.60;2.95;;;;;;;;;;4997279;28;20058;-79
2024/03/07 00:04:44;;;;;;;;;;;;;;;;;;4998787;28;20472;-79
2024/03/07 00:07:11;;;;;;;20.33;3.30;;;;;;;;;;4997432;28;20029;-79
2024/03/07 00:09:39;;;;;;;14.60;3.08;;;;;;;;;;4997799;28;20056;-79
2024/03/07 00:12:07;;;;;;;17.95;3.67;;;;;;;;;;4997090;28;20097;-79
2024/03/07 00:14:35;;;;;;;21.80;4.00;;;;;;;;;;4997786;28;20050;-79
2024/03/07 00:17:02;;;;;;;15.53;3.77;;;;;;;;;;4997798;28;20046;-79
2024/03/07 00:19:29;;;;;;;17.67;4.20;;;;;;;;;;5013710;28;20096;-79
2024/03/07 00:21:57;;;;;;;14.45;4.05;;;;;;;;;;4998107;28;20125;-79
2024/03/07 00:24:24;;;;;;;10.77;5.57;;;;;;;;;;4997082;28;25954;-78
2024/03/07 00:26:51;;;;;;;14.52;3.88;;;;;;;;;;4978348;28;20109;-79
2024/03/07 00:29:19;;;;;;;10.40;3.95;;;;;;;;;;4976850;28;20047;-78
2024/03/07 00:31:46;;;;;;;16.63;4.30;;;;;;;;;;4978227;28;20489;-78
2024/03/07 00:34:16;;;;;;;12.45;4.40;;;;;;;;;;4982192;28;20126;-78
2024/03/07 00:36:51;;;;;;;21.13;5.37;;;;;;;;;;5015083;28;20120;-79
2024/03/07 00:39:19;;;;;;;12.45;4.45;;;;;;;;;;5012846;28;20065;-79
2024/03/07 00:41:47;;;;;;;22.33;5.93;;;;;;;;;;5013948;28;20134;-79
2024/03/07 00:44:14;;;;;;;15.57;5.15;;;;;;;;;;4996802;28;20046;-79
2024/03/07 00:46:41;;;;;;;15.63;5.22;;;;;;;;;;4997311;28;20050;-79
2024/03/07 00:49:08;;;;;;;13.82;5.22;;;;;;;;;;4996246;28;20053;-79
2024/03/07 00:51:35;;;;;;;16.83;5.47;;;;;;;;;;4996990;28;20120;-80
2024/03/07 00:54:06;;;;;;;9.50;4.93;;;;;;;;;;4996966;28;20041;-78
2024/03/07 00:56:33;;;;;;;17.20;5.20;;;;;;;;;;5014885;28;20129;-78
2024/03/07 00:59:00;;;;;;;17.30;5.00;;;;;;;;;;5012869;28;20042;-78
2024/03/07 01:01:27;;;;;;;14.68;5.72;;;;;;;;;;5012992;28;20147;-78
2024/03/07 01:03:53;;;;;;;13.43;5.18;;;;;;;;;;4996926;28;20050;-79
2024/03/07 01:06:20;;;;;;;19.60;6.25;;;;;;;;;;4996096;28;20058;-79
2024/03/07 01:08:48;;;;;;;15.27;5.80;;;;;;;;;;4996939;28;20420;-78
2024/03/07 01:11:15;;;;;;;18.42;5.95;;;;;;;;;;5012551;28;20038;-79
2024/03/07 01:13:42;;;;;;;14.82;5.93;;;;;;;;;;4996440;28;20128;-79
2024/03/07 01:16:09;;;;;;;18.75;5.25;;;;;;;;;;4996339;28;20129;-78
2024/03/07 01:18:37;;;;;;;11.55;5.72;;;;;;;;;;4996509;28;20377;-79
2024/03/07 01:21:05;;;;;;;12.45;5.63;;;;;;;;;;5012347;28;20042;-77
2024/03/07 01:23:32;;;;;;;13.13;5.95;;;;;;;;;;5014150;28;20050;-79
2024/03/07 01:25:59;;;;;;;10.02;5.95;;;;;;;;;;4984212;28;20053;-79
2024/03/07 01:28:29;;;;;;;13.35;5.60;;;;;;;;;;4976680;28;20101;-79
2024/03/07 01:30:58;;;;;;;13.80;6.35;;;;;;;;;;4977140;28;20429;-79
2024/03/07 01:33:25;;;;;;;11.05;6.00;;;;;;;;;;4976709;28;20061;-79
2024/03/07 01:35:52;;;;;;;15.70;6.38;;;;;;;;;;4994842;28;20049;-78
2024/03/07 01:38:19;;;;;;;10.82;6.13;;;;;;;;;;5012345;28;20038;-78
2024/03/07 01:40:46;;;;;;;9.05;5.88;;;;;;;;;;4995503;28;20096;-79
2024/03/07 01:43:13;;;;;;;13.73;6.15;;;;;;;;;;4995504;28;20128;-78
2024/03/07 01:45:39;;;;;;;12.63;6.10;;;;;;;;;;5012455;28;20368;-79
2024/03/07 01:48:09;;;;;;;11.85;6.13;;;;;;;;;;5011829;28;20049;-80
2024/03/07 01:50:38;;;;;;;8.35;6.35;;;;;;;;;;5012442;28;20050;-79
2024/03/07 01:53:11;;;;;;;11.73;5.88;;;;;;;;;;5012259;28;20423;-79
2024/03/07 01:55:41;;;;;;;8.93;5.35;;;;;;;;;;4996331;28;20042;-79
2024/03/07 01:58:09;;;;;;;10.73;5.13;;;;;;;;;;4995421;28;20037;-78
2024/03/07 02:00:36;;;;;;;11.68;6.22;;;;;;;;;;5012354;28;20146;-78
2024/03/07 02:03:03;;;;;;;18.75;6.88;;;;;;;;;;5011899;28;20049;-79
2024/03/07 02:05:30;;;;;;;8.60;5.60;;;;;;;;;;5011803;28;20050;-79
2024/03/07 02:07:58;;;;;;;8.30;5.47;;;;;;;;;;4995826;28;20042;-79
2024/03/07 02:10:25;;;;;;;9.50;5.50;;;;;;;;;;4995047;28;20054;-79
2024/03/07 02:12:52;;;;;;;8.95;5.47;;;;;;;;;;4995642;28;20054;-79
2024/03/07 02:15:19;;;;;;;8.20;5.45;;;;;;;;;;4994890;28;20077;-79
2024/03/07 02:17:46;;;;;;;6.95;5.18;;;;;;;;;;4995906;28;20038;-79
2024/03/07 02:20:14;;;;;;;9.20;5.50;;;;;;;;;;4994836;28;20049;-79
2024/03/07 02:22:41;;;;;;;6.03;5.28;;;;;;;;;;5012063;28;20042;-79
2024/03/07 02:25:11;;;;;;;7.28;5.60;;;;;;;;;;5005932;28;20429;-78
2024/03/07 02:27:38;;;;;;;6.88;6.15;;;;;;;;;;4992205;28;20058;-79
2024/03/07 02:30:08;;;;;;;7.60;6.50;;;;;;;;;;4976008;28;20121;-77
2024/03/07 02:32:37;;;;;;;8.75;7.25;;;;;;;;;;4976093;28;20050;-78
2024/03/07 02:35:05;;;;;;;9.57;7.00;;;;;;;;;;4995945;28;20038;-79
2024/03/07 02:37:31;;;;;;;7.90;6.90;;;;;;;;;;4994588;28;20056;-79
2024/03/07 02:39:59;;;;;;;7.72;6.60;;;;;;;;;;4994907;28;20516;-79
2024/03/07 02:42:25;;;;;;;7.85;6.93;;;;;;;;;;5011069;28;20069;-78
2024/03/07 02:44:52;;;;;;;8.65;6.53;;;;;;;;;;5011714;28;20049;-78
2024/03/07 02:47:19;;;;;;;7.28;6.30;;;;;;;;;;4994798;28;20046;-79
2024/03/07 02:49:46;;;;;;;7.70;6.97;;;;;;;;;;5011746;28;20046;-78
2024/03/07 02:52:13;;;;;;;8.68;6.50;;;;;;;;;;4994252;28;20050;-79
2024/03/07 02:54:40;;;;;;;8.23;6.28;;;;;;;;;;5013028;28;20380;-79
2024/03/07 02:57:07;;;;;;;7.38;6.47;;;;;;;;;;5011056;28;20053;-80
2024/03/07 02:59:33;;;;;;;7.82;6.22;;;;;;;;;;4995140;28;20049;-78
2024/03/07 03:02:00;;;;;;;7.05;6.00;;;;;;;;;;4995478;28;20042;-79
2024/03/07 03:04:27;;;;;;;7.35;6.65;;;;;;;;;;4994823;28;20137;-78
2024/03/07 03:06:54;;;;;;;8.05;6.63;;;;;;;;;;5013080;28;20129;-79
2024/03/07 03:09:21;;;;;;;9.50;6.97;;;;;;;;;;4994868;28;20536;-79
2024/03/07 03:11:48;;;;;;;9.65;6.47;;;;;;;;;;4994976;28;20128;-79
2024/03/07 03:14:15;;;;;;;8.40;6.45;;;;;;;;;;5012259;28;20042;-78
2024/03/07 03:16:45;;;;;;;7.50;6.70;;;;;;;;;;4995329;28;20121;-78
2024/03/07 03:19:15;;;;;;;9.20;6.82;;;;;;;;;;4994882;28;20374;-78
2024/03/07 03:21:42;;;;;;;10.18;7.40;;;;;;;;;;5011241;28;20056;-79
2024/03/07 03:24:09;;;;;;;9.07;7.45;;;;;;;;;;4994506;28;20069;-77
2024/03/07 03:26:36;;;;;;;9.80;6.90;;;;;;;;;;4995328;28;20050;-78
2024/03/07 03:29:03;;;;;;;9.18;7.63;;;;;;;;;;4975853;28;20061;-79
2024/03/07 03:31:30;;;;;;;8.55;7.35;;;;;;;;;;4975175;28;20047;-78
2024/03/07 03:33:57;;;;;;;8.32;7.47;;;;;;;;;;4995188;28;20038;-79
2024/03/07 03:36:24;;;;;;;8.73;7.47;;;;;;;;;;5026779;28;20046;-78
2024/03/07 03:38:51;;;;;;;8.77;7.88;;;;;;;;;;5011210;28;20042;-79
2024/03/07 03:41:18;;;;;;;10.50;7.55;;;;;;;;;;5012050;28;20050;-79
2024/03/07 03:43:45;;;;;;;8.57;7.43;;;;;;;;;;5011023;28;20050;-78
2024/03/07 03:46:12;;;;;;;10.82;8.48;;;;;;;;;;4994475;28;20061;-79
2024/03/07 03:48:40;;;;;;;10.13;8.05;;;;;;;;;;4994883;28;20049;-79
2024/03/07 03:51:12;;;;;;;11.13;7.93;;;;;;;;;;5010461;28;20084;-79
2024/03/07 03:53:40;;;;;;;8.93;7.85;;;;;;;;;;4995002;28;20046;-79
2024/03/07 03:56:11;;;;;;;11.07;7.80;;;;;;;;;;5010491;28;20046;-78
2024/03/07 03:58:42;;;;;;;10.80;9.05;;;;;;;;;;5011400;28;20485;-78
2024/03/07 04:01:13;;;;;;;10.90;8.30;;;;;;;;;;5010804;28;20542;-78
2024/03/07 04:03:40;;;;;;;10.73;8.50;;;;;;;;;;5011902;28;20042;-78
2024/03/07 04:06:07;;;;;;;10.25;8.77;;;;;;;;;;4997115;28;20046;-79
2024/03/07 04:08:36;;;;;;;11.13;8.93;;;;;;;;;;5014059;28;20116;-78
2024/03/07 04:11:04;;;;;;;11.13;8.60;;;;;;;;;;5014310;28;20045;-79
2024/03/07 04:13:31;;;;;;;10.35;9.23;;;;;;;;;;5014685;28;20049;-79
2024/03/07 04:15:59;;;;;;;11.30;9.23;;;;;;;;;;5014408;28;20050;-79
2024/03/07 04:18:26;;;;;;;11.25;8.98;;;;;;;;;;4997051;28;20077;-78
2024/03/07 04:20:54;;;;;;;10.77;8.52;;;;;;;;;;5014314;28;20052;-78
2024/03/07 04:23:21;;;;;;;9.85;8.32;;;;;;;;;;4997493;28;20045;-78
2024/03/07 04:25:47;;;;;;;10.93;8.30;;;;;;;;;;4986852;28;20133;-79
2024/03/07 04:28:14;;;;;;;11.40;8.52;;;;;;;;;;4995329;28;20121;-79
2024/03/07 04:30:42;;;;;;;11.35;9.07;;;;;;;;;;4978536;28;20441;-79
2024/03/07 04:33:09;;;;;;;9.80;7.87;;;;;;;;;;4977862;28;20128;-78
2024/03/07 04:35:36;;;;;;;9.93;7.85;;;;;;;;;;5011360;28;20327;-79
2024/03/07 04:38:03;;;;;;;8.38;7.15;;;;;;;;;;5013919;28;20053;-78
2024/03/07 04:40:30;;;;;;;9.57;6.72;;;;;;;;;;5013210;28;20042;-78
2024/03/07 04:42:56;;;;;;;8.70;6.25;;;;;;;;;;5013823;28;20053;-79
2024/03/07 04:45:23;;;;;;;9.85;6.85;;;;;;;;;;5013553;28;20050;-77
2024/03/07 04:47:50;;;;;;;8.27;6.30;;;;;;;;;;5015127;28;20046;-78
2024/03/07 04:50:17;;;;;;;9.23;7.00;;;;;;;;;;5013493;28;20374;-78
2024/03/07 04:52:46;;;;;;;8.85;6.07;;;;;;;;;;5013455;28;20069;-78
2024/03/07 04:55:14;;;;;;;8.35;6.55;;;;;;;;;;4997305;28;20052;-79
2024/03/07 04:57:41;;;;;;;8.68;5.90;;;;;;;;;;4997619;28;20049;-79
2024/03/07 05:00:18;;;;;;;7.90;6.28;;;;;;;;;;5013060;28;20050;-79
2024/03/07 05:02:50;;;;;;;7.07;5.70;;;;;;;;;;5013842;28;20049;-79
2024/03/07 05:05:21;;;;;;;6.20;5.57;;;;;;;;;;5014171;28;20042;-79
2024/03/07 05:07:50;;;;;;;8.95;5.50;;;;;;;;;;5013323;28;20052;-78
2024/03/07 05:10:18;;;;;;;7.90;5.60;;;;;;;;;;4996217;28;20401;-78
2024/03/07 05:12:45;;;;;;;6.43;5.47;;;;;;;;;;5013337;28;20066;-79
2024/03/07 05:15:12;;;;;;;7.28;5.53;;;;;;;;;;5011990;28;20121;-78
2024/03/07 05:17:40;;;;;;;7.32;5.47;;;;;;;;;;4997082;28;20077;-78
2024/03/07 05:20:10;;;;;;;7.45;5.50;;;;;;;;;;5014140;28;20038;-78
2024/03/07 05:22:40;;;;;;;8.05;5.68;;;;;;;;;;5014473;28;20046;-78
2024/03/07 05:25:08;;;;;;;6.03;5.28;;;;;;;;;;5007147;28;20053;-78
2024/03/07 05:27:36;;;;;;;6.13;5.40;;;;;;;;;;4977402;28;20077;-78
2024/03/07 05:30:05;;;;;;;8.63;5.88;;;;;;;;;;4977285;28;20046;-78
2024/03/07 05:32:36;;;;;;;7.75;5.65;;;;;;;;;;4993027;28;20420;-79
2024/03/07 05:35:03;;;;;;;6.32;5.30;;;;;;;;;;5004656;28;20497;-78
2024/03/07 05:37:31;;;;;;;6.30;4.95;;;;;;;;;;5013963;28;20066;-79
2024/03/07 05:39:59;;;;;;;6.05;4.80;;;;;;;;;;5012927;28;20046;-79
2024/03/07 05:42:26;;;;;;;5.70;4.88;;;;;;;;;;4995484;28;20434;-78
2024/03/07 05:44:53;;;;;;;6.28;4.82;;;;;;;;;;4996308;28;20393;-79
2024/03/07 05:47:21;;;;;;;8.77;4.70;;;;;;;;;;5012288;28;20042;-79
2024/03/07 05:49:49;;;;;;;6.63;4.57;;;;;;;;;;5012455;28;20130;-78
2024/03/07 05:52:16;;;;;;;5.30;4.00;;;;;;;;;;5013381;28;20053;-78
2024/03/07 05:54:43;;;;;;;6.18;4.07;;;;;;;;;;5012732;28;20056;-78
2024/03/07 05:57:11;;;;;;;10.10;4.03;;;;;;;;;;5012161;28;20048;-78
2024/03/07 05:59:38;;;;;;;8.32;4.25;;;;;;;;;;5013387;28;20120;-79
2024/03/07 06:02:06;;;;;;;6.20;3.83;;;;;;;;;;4995399;28;20053;-79
2024/03/07 06:04:34;;;;;;;9.40;3.90;;;;;;;;;;5012507;28;20050;-78
2024/03/07 06:07:01;;;;;;;6.93;3.70;;;;;;;;;;4995377;28;20050;-81
2024/03/07 06:09:28;;;;;;;8.55;4.05;;;;;;;;;;5010995;28;20052;-80
2024/03/07 06:11:55;;;;;;;7.55;3.50;;;;;;;;;;4995657;28;20049;-79
2024/03/07 06:14:24;;;;;;;9.90;4.20;;;;;;;;;;4994560;28;20041;-78
2024/03/07 06:16:52;;;;;;;6.72;2.80;;;;;;;;;;4995850;28;20041;-80
2024/03/07 06:19:19;;;;;;;7.87;3.77;;;;;;;;;;5011357;28;20124;-79
2024/03/07 06:21:46;;;;;;;7.55;3.28;;;;;;;;;;4995192;28;20042;-78
2024/03/07 06:24:15;;;;;;;8.30;3.30;;;;;;;;;;5011024;28;20053;-79
2024/03/07 06:29:17;;;;;;;5.72;3.00;;;;;;;;;;4991983;28;20053;-80
2024/03/07 06:31:49;;;;;;;7.53;3.15;;;;;;;;;;4976233;28;20047;-79
2024/03/07 06:34:17;;;;;;;6.90;2.50;;;;;;;;;;4997498;28;20052;-79
2024/03/07 06:36:45;;;;;;;9.82;3.55;;;;;;;;;;4995339;28;20445;-79
2024/03/07 06:39:12;;;;;;;7.68;2.30;;;;;;;;;;5010656;28;20045;-79
2024/03/07 06:41:39;;;;;;;11.15;2.45;;;;;;;;;;4995539;28;20388;-79
2024/03/07 06:44:09;;;;;;;6.35;1.98;;;;;;;;;;5011144;28;20042;-79
2024/03/07 06:46:37;;;;;;;5.13;2.42;;;;;;;;;;4995634;28;20046;-79
2024/03/07 06:49:09;;;;;;;8.93;2.70;;;;;;;;;;4994675;28;20044;-77
2024/03/07 06:51:36;;;;;;;6.93;2.20;;;;;;;;;;5011482;28;20053;-78
2024/03/07 06:54:03;;;;;;;8.77;2.20;;;;;;;;;;5011889;28;20049;-80
2024/03/07 06:56:30;;;;;;;5.50;1.95;;;;;;;;;;4994373;28;20054;-79
2024/03/07 06:58:58;;;;;;;6.75;2.10;;;;;;;;;;5011508;28;20053;-80
2024/03/07 07:01:24;;;;;;;7.78;1.92;;;;;;;;;;4993798;28;20113;-79
2024/03/07 07:03:54;;;;;;;6.28;2.13;;;;;;;;;;4995314;28;20108;-79
2024/03/07 07:06:21;;;;;;;5.50;2.28;;;;;;;;;;4994029;28;20048;-79
2024/03/07 07:08:49;;;;;;;5.50;2.10;;;;;;;;;;4994814;28;20042;-79
2024/03/07 07:11:17;;;;;;;7.17;1.87;;;;;;;;;;4994009;28;20038;-79
2024/03/07 07:13:46;;;;;;;7.45;1.90;;;;;;;;;;5012435;28;20296;-79
2024/03/07 07:16:13;;;;;;;12.95;2.28;;;;;;;;;;5010437;28;20042;-79
2024/03/07 07:18:40;;;;;;;6.43;2.20;;;;;;;;;;5011338;28;20552;-80
2024/03/07 07:21:10;;;;;;;11.57;2.28;;;;;;;;;;4994224;28;20124;-79
2024/03/07 07:23:38;;;;;;;7.47;2.20;;;;;;;;;;4994637;28;20381;-78
2024/03/07 07:26:05;;;;;;;9.02;3.17;;;;;;;;;;4998660;28;20051;-78
2024/03/07 07:28:33;;;;;;;13.82;2.90;;;;;;;;;;4975638;28;20477;-79
2024/03/07 07:31:00;;;;;;;8.80;2.42;;;;;;;;;;4991198;28;20050;-79
2024/03/07 07:33:26;;;;;;;8.68;2.40;;;;;;;;;;4974580;28;20465;-79
2024/03/07 07:35:54;;;;;;;6.80;2.55;;;;;;;;;;4993584;28;20125;-79
2024/03/07 07:38:21;;;;;;;8.50;2.75;;;;;;;;;;5028349;28;20045;-80
2024/03/07 07:40:49;;;;;;;6.65;2.35;;;;;;;;;;5014516;28;20046;-79
2024/03/07 07:43:17;;;;;;;7.55;2.75;;;;;;;;;;5013955;28;20543;-79
2024/03/07 07:45:59;;;;;;;11.77;2.30;;;;;;;;;;5014922;28;20045;-80
2024/03/07 07:48:26;;;;;;;11.48;2.50;;;;;;;;;;5015205;28;20096;-78
2024/03/07 07:50:54;;;;;;;8.98;2.03;;;;;;;;;;4998451;28;20041;-79
2024/03/07 07:53:21;;;;;;;8.45;2.30;;;;;;;;;;4997933;28;20052;-79
2024/03/07 07:55:48;;;;;;;9.45;1.98;;;;;;;;;;5014243;28;20096;-80
2024/03/07 07:58:15;;;;;;;10.88;2.50;;;;;;;;;;4997430;28;20152;-79
2024/03/07 08:00:43;;;;;;;7.97;2.40;;;;;;;;;;4997899;28;20042;-80
2024/03/07 08:03:11;;;;;;;7.60;2.17;;;;;;;;;;4997583;28;20042;-80
2024/03/07 08:05:38;;;;;;;11.90;2.70;;;;;;;;;;5005543;28;20041;-80
2024/03/07 08:08:07;;;;;;;7.20;2.03;;;;;;;;;;4994438;28;20047;-78
2024/03/07 08:10:36;;;;;;;6.20;1.77;;;;;;;;;;4994672;28;20046;-80
2024/03/07 08:13:08;;;;;;;11.65;2.05;;;;;;;;;;4993899;28;20042;-79
2024/03/07 08:15:35;;;;;;;9.38;2.55;;;;;;;;;;5020130;28;20045;-80
2024/03/07 08:18:08;;;;;;;9.40;2.05;;;;;;;;;;5020549;28;20116;-80
2024/03/07 08:20:38;;;;;;;8.15;2.35;;;;;;;;;;5037678;28;20064;-79
2024/03/07 08:23:06;;;;;;;7.28;1.98;;;;;;;;;;5019691;28;20442;-80
2024/03/07 08:25:33;;;;;;;9.15;2.25;;;;;;;;;;5017293;28;20084;-80
2024/03/07 08:28:00;;;;;;;11.70;2.47;;;;;;;;;;5034013;28;20045;-80
2024/03/07 08:30:28;;;;;;;6.75;1.90;;;;;;;;;;5019696;28;20371;-80
2024/03/07 08:32:56;;;;;;;7.82;2.17;;;;;;;;;;5019943;28;20053;-80
2024/03/07 08:35:24;;;;;;;9.52;1.80;;;;;;;;;;5054294;28;20056;-79
2024/03/07 08:37:53;;;;;;;7.70;2.20;;;;;;;;;;5020750;28;20133;-80
2024/03/07 08:40:26;;;;;;;7.13;1.70;;;;;;;;;;5011314;28;20063;-78
2024/03/07 08:42:56;;;;;;;7.07;2.03;;;;;;;;;;5035001;28;20132;-80
2024/03/07 08:45:25;;;;;;;5.95;1.90;;;;;;;;;;5017009;28;20056;-79
2024/03/07 08:47:57;;;;;;;6.70;1.77;;;;;;;;;;5034626;28;20041;-79
2024/03/07 08:50:26;;;;;;;12.10;2.30;;;;;;;;;;5033936;28;20568;-79
2024/03/07 08:52:54;;;;;;;5.97;1.92;;;;;;;;;;5034836;28;20049;-80
2024/03/07 08:55:24;;;;;;;12.25;2.30;;;;;;;;;;5016645;28;20052;-79
2024/03/07 08:57:53;;;;;;;4.43;1.70;;;;;;;;;;5001190;28;20053;-79
2024/03/07 09:00:26;;;;;;;11.45;2.17;;;;;;;;;;5016411;28;20422;-80
2024/03/07 09:02:57;;;;;;;6.28;1.50;;;;;;;;;;5016772;28;20079;-78
2024/03/07 09:05:28;;;;;;;7.13;2.17;;;;;;;;;;5033995;28;20053;-79
2024/03/07 09:07:56;;;;;;;9.95;1.80;;;;;;;;;;5034074;28;20046;-78
2024/03/07 09:10:25;;;;;;;7.30;1.63;;;;;;;;;;4999487;28;20041;-80
2024/03/07 09:12:53;;;;;;;7.22;2.20;;;;;;;;;;4999763;28;20056;-79
2024/03/07 09:15:22;;;;;;;5.65;1.67;;;;;;;;;;5033851;28;20069;-80
2024/03/07 09:17:50;;;;;;;6.45;2.20;;;;;;;;;;5016706;28;20076;-80
2024/03/07 09:20:18;;;;;;;7.18;2.03;;;;;;;;;;5015392;28;20073;-82
2024/03/07 09:22:50;;;;;;;8.07;2.03;;;;;;;;;;5000332;28;20045;-80
2024/03/07 09:25:18;;;;;;;7.65;1.95;;;;;;;;;;5022453;28;20037;-80
2024/03/07 09:27:46;;;;;;;7.90;2.35;;;;;;;;;;5020042;28;20140;-79
2024/03/07 09:30:18;;;;;;;14.00;2.33;;;;;;;;;;5052265;28;20140;-80
2024/03/07 09:32:45;;;;;;;4.70;1.77;;;;;;;;;;5034522;28;20042;-79
2024/03/07 09:35:13;;;;;;;4.82;2.50;;;;;;;;;;5033791;28;20047;-79
2024/03/07 09:37:42;;;;;;;5.68;2.00;;;;;;;;;;5016011;28;20044;-79
2024/03/07 09:40:13;;;;;;;7.47;2.05;;;;;;;;;;5039270;28;20037;-79
2024/03/07 09:42:47;;;;;;;6.90;2.13;;;;;;;;;;5036546;28;20416;-80
2024/03/07 09:45:17;;;;;;;8.55;1.63;;;;;;;;;;5035850;28;20041;-79
2024/03/07 09:47:49;;;;;;;6.18;1.73;;;;;;;;;;5036401;28;20174;-80
2024/03/07 09:50:21;;;;;;;8.45;1.60;;;;;;;;;;5018914;28;20378;-80
2024/03/07 09:52:52;;;;;;;6.65;1.48;;;;;;;;;;5036102;28;20160;-79
2024/03/07 09:55:23;;;;;;;7.53;1.98;;;;;;;;;;5035196;28;20098;-79
2024/03/07 09:57:55;;;;;;;5.15;1.58;;;;;;;;;;5019898;28;20068;-79
2024/03/07 10:00:27;;;;;;;5.45;1.55;;;;;;;;;;5052854;28;20045;-79
2024/03/07 10:03:01;;;;;;;4.90;1.25;;;;;;;;;;5035490;28;20056;-79
2024/03/07 10:05:30;;;;;;;3.25;1.33;;;;;;;;;;5035498;28;20154;-80
2024/03/07 10:07:58;;;;;;;6.07;1.27;;;;;;;;;;5019211;28;20053;-80
2024/03/07 10:10:25;;;;;;;5.75;1.25;;;;;;;;;;5035015;28;20231;-80
2024/03/07 10:12:53;;;;;;;8.00;1.98;;;;;;;;;;5018753;28;20045;-80
2024/03/07 10:15:21;;;;;;;4.53;1.35;;;;;;;;;;5018475;28;20147;-80
2024/03/07 10:17:48;;;;;;;3.90;1.15;;;;;;;;;;5034987;28;20045;-80
2024/03/07 10:20:22;;;;;;;6.10;1.60;;;;;;;;;;5017628;28;20128;-84
2024/03/07 10:22:50;;;;;;;5.60;1.30;;;;;;;;;;5018396;28;20454;-82
2024/03/07 10:25:27;;;;;;;6.05;1.33;;;;;;;;;;5023313;28;20064;-82
2024/03/07 10:28:00;;;;;;;5.10;1.70;;;;;;;;;;5018361;28;20043;-88
2024/03/07 10:30:39;;;;;;;5.78;1.10;;;;;;;;;;5028255;28;20050;-87
2024/03/07 10:33:07;;;;;;;6.35;1.20;;;;;;;;;;5036882;28;20041;-85
2024/03/07 10:35:35;;;;;;;7.53;1.30;;;;;;;;;;5037969;28;20041;-86
2024/03/07 10:38:11;;;;;;;4.18;1.45;;;;;;;;;;5037987;28;20067;-88
2024/03/07 10:40:42;;;;;;;5.43;1.20;;;;;;;;;;5052812;28;20048;-84
2024/03/07 10:43:11;;;;;;;;;;;;;;;;;;5055115;28;20033;-86
2024/03/07 10:45:51;;;;;;;3.33;1.00;;;;;;;;;;5051354;28;19927;-87
2024/03/07 10:48:20;;;;;;;4.72;1.50;;;;;;;;;;5037019;28;20079;-89
2024/03/07 10:59:29;;;;;;;5.28;1.20;;;;;;;;;;4759590;29;20572;-88
2024/03/07 11:02:19;;;;;;;4.55;1.30;;;;;;;;;;4863383;29;20101;-87
2024/03/07 11:05:12;;;;;;;4.30;1.10;;;;;;;;;;4884911;28;20076;-89
2024/03/07 11:07:40;;;;;;;6.05;1.48;;;;;;;;;;4936385;28;20039;-87
2024/03/07 11:10:11;;;;;;;5.27;1.40;;;;;;;;;;4954049;28;20057;-88
2024/03/07 11:12:44;;;;;;;2.22;0.85;;;;;;;;;;4958399;28;20097;-90
2024/03/07 11:15:37;;;;;;;;;;;;;;;;;;;;;
2024/03/07 11:18:40;;;;;;;6.18;1.45;;;;;;;;;;5030728;22;20052;-83
2024/03/07 11:21:07;;;;;;;4.72;1.27;;;;;;;;;;5038596;28;20051;-83
2024/03/07 11:23:44;;;;;;;4.25;1.00;;;;;;;;;;5055207;28;20048;-83
2024/03/07 11:26:13;;;;;;;3.83;1.20;;;;;;;;;;5054263;28;20123;-83
2024/03/07 11:28:47;;;;;;;;;;;;;;;;;;5055310;28;20045;-83
2024/03/07 11:31:15;;;;;;;2.70;1.27;;;;;;;;;;5054345;28;19921;-83
2024/03/07 11:33:43;;;;;;;3.70;1.25;;;;;;;;;;5036922;28;20049;-83
2024/03/07 11:36:11;;;;;;;4.50;1.20;;;;;;;;;;5037573;28;20141;-84
2024/03/07 11:38:48;;;;;;;4.20;1.20;;;;;;;;;;5037829;28;20475;-90
2024/03/07 11:41:19;;;;;;;3.67;1.10;;;;;;;;;;5021601;28;20041;-79
2024/03/07 11:43:46;;;;;;;5.38;1.00;;;;;;;;;;5056178;28;20037;-79
2024/03/07 11:46:16;;;;;;;3.78;1.08;;;;;;;;;;5056004;28;20033;-79
2024/03/07 11:48:44;;;;;;;3.55;1.30;;;;;;;;;;5055919;28;20549;-79
2024/03/07 11:51:13;;;;;;;6.00;1.40;;;;;;;;;;5055649;28;20399;-79
2024/03/07 11:53:41;;;;;;;3.53;1.40;;;;;;;;;;5056185;28;20132;-78
2024/03/07 11:56:09;;;;;;;4.23;1.40;;;;;;;;;;5055671;28;20128;-82
2024/03/07 11:58:41;;;;;;;3.15;1.50;;;;;;;;;;5038069;28;20346;-82
2024/03/07 12:01:13;;;;;;;8.95;1.52;;;;;;;;;;5020831;28;20048;-82
2024/03/07 12:03:41;;;;;;;4.72;1.30;;;;;;;;;;5021913;28;20131;-82
2024/03/07 12:06:12;;;;;;;4.05;1.00;;;;;;;;;;5021081;28;20396;-82
2024/03/07 12:08:41;;;;;;;4.07;1.10;;;;;;;;;;5037968;28;20052;-83
2024/03/07 12:11:15;;;;;;;3.33;1.20;;;;;;;;;;5019914;28;20049;-84
2024/03/07 12:13:43;;;;;;;3.20;1.08;;;;;;;;;;5045487;28;20161;-82
2024/03/07 12:16:10;;;;;;;11.98;1.30;;;;;;;;;;5037313;28;20403;-79
2024/03/07 12:18:37;;;;;;;4.35;1.02;;;;;;;;;;5055904;28;20053;-78
2024/03/07 12:21:08;;;;;;;3.90;1.13;;;;;;;;;;5054430;28;20129;-81
2024/03/07 12:23:38;;;;;;;4.15;0.95;;;;;;;;;;5051972;28;20052;-82
2024/03/07 12:26:05;;;;;;;3.70;1.00;;;;;;;;;;5024796;28;20049;-81
2024/03/07 12:28:33;;;;;;;4.90;1.35;;;;;;;;;;5019727;28;20049;-82
2024/03/07 12:31:02;;;;;;;4.85;1.17;;;;;;;;;;5036114;28;20045;-82
2024/03/07 12:33:31;;;;;;;3.65;1.23;;;;;;;;;;5035486;28;20045;-82
2024/03/07 12:36:09;;;;;;;3.47;0.98;;;;;;;;;;5018269;28;20051;-84
2024/03/07 12:38:40;;;;;;;6.68;1.23;;;;;;;;;;5044405;28;20037;-82
2024/03/07 12:41:15;;;;;;;3.38;0.82;;;;;;;;;;5017898;28;20162;-82
2024/03/07 12:43:45;;;;;;;3.38;1.00;;;;;;;;;;5025183;28;20045;-82
2024/03/07 12:46:14;;;;;;;3.15;1.00;;;;;;;;;;5018695;28;20095;-81
2024/03/07 12:48:44;;;;;;;4.55;1.23;;;;;;;;;;5020225;28;20464;-83
2024/03/07 12:51:16;;;;;;;4.22;1.23;;;;;;;;;;5018499;28;20140;-83
2024/03/07 12:53:46;;;;;;;4.45;1.08;;;;;;;;;;5026627;28;20044;-83
2024/03/07 12:56:17;;;;;;;2.53;0.80;;;;;;;;;;5027377;28;20410;-82
2024/03/07 12:58:46;;;;;;;4.22;0.88;;;;;;;;;;5034242;28;20041;-82
2024/03/07 13:01:14;;;;;;;1.60;0.77;;;;;;;;;;5019046;28;20128;-83
2024/03/07 13:03:44;;;;;;;4.43;1.30;;;;;;;;;;5023482;28;20029;-82
2024/03/07 13:06:11;;;;;;;1.90;0.90;;;;;;;;;;5027817;28;20037;-83
2024/03/07 13:08:40;;;;;;;5.95;1.23;;;;;;;;;;5044079;28;20049;-83
2024/03/07 13:11:09;;;;;;;3.70;0.93;;;;;;;;;;5036283;28;20438;-83
2024/03/07 13:13:37;;;;;;;2.58;0.63;;;;;;;;;;5036673;28;20045;-82
2024/03/07 13:16:04;;;;;;;1.88;0.60;;;;;;;;;;5036105;28;20120;-82
2024/03/07 13:18:33;;;;;;;1.38;0.60;;;;;;;;;;5036184;28;20098;-82
2024/03/07 13:21:06;;;;;;;1.30;0.80;;;;;;;;;;5020142;28;20049;-83
2024/03/07 13:23:34;;;;;;;3.13;0.68;;;;;;;;;;5036057;28;20056;-82
2024/03/07 13:26:01;;;;;;;1.83;0.73;;;;;;;;;;5019827;28;20079;-83
2024/03/07 13:28:29;;;;;;;2.30;0.88;;;;;;;;;;5019275;28;20052;-83
2024/03/07 13:30:56;;;;;;;2.53;0.82;;;;;;;;;;5019645;28;20140;-83
2024/03/07 13:33:24;;;;;;;2.38;0.98;;;;;;;;;;5053145;28;20041;-83
2024/03/07 13:35:52;;;;;;;3.35;0.80;;;;;;;;;;5015939;28;20045;-83
2024/03/07 13:38:20;;;;;;;3.80;0.80;;;;;;;;;;5018375;28;20124;-83
2024/03/07 13:40:49;;;;;;;7.65;1.00;;;;;;;;;;5024878;28;20131;-81
2024/03/07 13:43:19;;;;;;;2.33;0.73;;;;;;;;;;5037460;28;20048;-81
2024/03/07 13:45:47;;;;;;;1.42;0.50;;;;;;;;;;5015955;28;20087;-81
2024/03/07 13:48:17;;;;;;;7.55;1.00;;;;;;;;;;4999253;28;20042;-82
2024/03/07 13:50:45;;;;;;;7.22;1.00;;;;;;;;;;5000113;28;20038;-82
2024/03/07 13:56:19;;;;;;;1.77;0.80;;;;;;;;;;5016062;28;20051;-82
2024/03/07 13:59:07;;;;;;;1.75;0.63;;;;;;;;;;4921054;29;20498;-82
2024/03/07 14:02:12;;;;;;;2.30;0.63;;;;;;;;;;4953494;28;20042;-82
2024/03/07 14:05:00;;;;;;;2.58;0.88;;;;;;;;;;4970484;28;20134;-82
2024/03/07 14:07:33;;;;;;;2.40;0.70;;;;;;;;;;4950062;28;20051;-81
2024/03/07 14:10:44;;;;;;;1.73;0.82;;;;;;;;;;4955993;28;20051;-79
2024/03/07 14:13:49;;;;;;;2.67;0.80;;;;;;;;;;4954931;28;20051;-82
2024/03/07 14:17:12;;;;;;;3.10;0.80;;;;;;;;;;4964051;28;20038;-82
2024/03/07 14:20:09;;;;;;;1.42;0.55;;;;;;;;;;4966356;28;20050;-81
2024/03/07 14:22:40;;;;;;;2.13;0.70;;;;;;;;;;4959025;28;20042;-81
2024/03/07 14:25:26;;;;;;;4.03;1.02;;;;;;;;;;4974862;28;20050;-82
2024/03/07 14:28:12;;;;;;;1.08;0.60;;;;;;;;;;4959214;28;20050;-82
2024/03/07 14:30:58;;;;;;;3.25;0.70;;;;;;;;;;4968279;28;20397;-82
2024/03/07 14:33:33;;;;;;;1.30;0.60;;;;;;;;;;4974592;28;20042;-82
2024/03/07 14:36:10;;;;;;;2.35;0.77;;;;;;;;;;5011685;28;20071;-82
2024/03/07 14:38:40;;;;;;;2.65;0.70;;;;;;;;;;5030238;28;20049;-82
2024/03/07 14:41:12;;;;;;;4.35;0.93;;;;;;;;;;5020224;28;20499;-82
2024/03/07 14:43:40;;;;;;;2.97;1.10;;;;;;;;;;5012835;28;20110;-81
2024/03/07 14:46:09;;;;;;;2.40;0.50;;;;;;;;;;5039923;28;20083;-79
2024/03/07 14:48:36;;;;;;;2.10;0.75;;;;;;;;;;5023112;28;20037;-80
2024/03/07 14:51:04;;;;;;;2.72;0.65;;;;;;;;;;5025860;28;20044;-80
2024/03/07 14:53:32;;;;;;;1.20;0.63;;;;;;;;;;5041996;28;20109;-81
2024/03/07 14:55:59;;;;;;;1.73;0.50;;;;;;;;;;5025764;28;20041;-81
2024/03/07 14:58:26;;;;;;;3.40;0.90;;;;;;;;;;5043041;28;20379;-81
2024/03/07 15:00:54;;;;;;;3.45;1.02;;;;;;;;;;5022268;28;20040;-80
2024/03/07 15:03:28;;;;;;;2.92;0.73;;;;;;;;;;5016715;28;20061;-81
2024/03/07 15:05:56;;;;;;;2.15;0.73;;;;;;;;;;5020327;28;20091;-81
2024/03/07 15:08:23;;;;;;;3.08;0.85;;;;;;;;;;5030990;28;20049;-81
2024/03/07 15:11:08;;;;;;;2.03;0.73;;;;;;;;;;5032850;28;20476;-81